Moses Lake, WA (98837)

4:23 PM PDT on September 01, 2014 (GMT -0700)
Civic Center | Change Station
CLOSE
Current Station
Personal Weather Station
Location: Moses Lake, WA
Elevation: 1050 ft
Nearby Weather Stations

Elev 1050 ft 47.13 °N, 119.27 °W | Updated 12 seconds ago

Clear
Clear
77.0 °F
Feels Like 78 °F
N
9.0
Wind Variable Wind from SW
Gusts 17.0 mph

Today
High -- | Low -- °F
--% Chance of Precip.
Yesterday
High -- | Low -- °F
Precip. -- in
6:16 AM 7:36 PM
Waxing Crescent, 45% visible
Pressure 29.93 in
Visibility 10.0 miles
Clouds Clear
Heat Index 78 °F
Dew Point 45 °F
Humidity 32%
Rainfall 0.00 in
Snow Depth Not available.
UV 4 out of 12
Pollen 3.90 out of 12
Air Quality Not available.
Flu Activity Not available.
METAR KMWH 012252Z 18009KT 10SM CLR 27/05 A2994 RMK AO2 SLP135 T02670050

More Conditions Fewer Conditions

Pressure 29.93 in
Visibility 10.0 miles
Clouds Clear
Heat Index 78 °F
Dew Point 45 °F
Humidity 32%
Rainfall 0.00 in
Snow Depth Not available.
UV 4 out of 12
Pollen 3.90 out of 12
Air Quality Not available.
Flu Activity Not available.
METAR KMWH 012252Z 18009KT 10SM CLR 27/05 A2994 RMK AO2 SLP135 T02670050

More Conditions Fewer Conditions

10-Day Weather Forecast

Almanac

Astronomy

Sep. 01, 2014 Rise Set
Actual Time 6:16 AM PDT 7:36 PM PDT
Civil Twilight 5:44 AM PDT 8:08 PM PDT
Nautical Twilight 5:06 AM PDT 8:46 PM PDT
Astronomical Twilight 4:25 AM PDT 9:27 PM PDT
Moon 1:33 PM PDT 11:14 PM PDT
Length of Visible Light 14h 23m
Length of Day
13h 20m
Tomorrow will be 3m 15s shorter.
Waxing Crescent, 45% of the Moon is Illuminated
Today
Waxing Crescent
Sep 2
First Quarter
Sep 8
Full
Sep 15
Last Quarter
Sep 24
New

Today's Extremes

State Highs State Lows

Community

WunderPhotos

Upload Photos

1,749,430 photos uploaded!

Nearby

Snow Depth

Station Depth Elevation
Upper Wheeler 0 in 4400 ft
Grouse Camp 1 in 5380 ft
Sasse Ridge 0 in 4200 ft
Moses Mountain 0 in 5300 ft
Stevens Pass 0 in 4070 ft

Earthquake Activity

City Distance Mag. Time & Date
No recent earthquake activity has been reported nearby.
Minimum magnitude displayed is 2.5.

Coastal Water Temperatures

Place Temperature
No Stations Reporting

Nearby Weather Stations